Time;durP1;ratioP1;P1;durP2;ratioP2;P2;SDS_P1;SDS_P2;PMS_P1;PMS_P2;Temp;Humidity;BMP_temperature;BMP_pressure;BME280_temperature;BME280_humidity;BME280_pressure;Samples;Min_cycle;Max_cycle;Signal;HPM_P1;HPM_P2
2022/07/17 00:02:11;;;;;;;1.65;1.38;;;;;;;;;;5052583;28;20037;-73
2022/07/17 00:04:36;;;;;;;3.10;2.70;;;;;;;;;;5036787;28;20029;-74
2022/07/17 00:07:02;;;;;;;0.30;0.30;;;;;;;;;;5054588;28;20033;-72
2022/07/17 00:09:27;;;;;;;0.65;0.38;;;;;;;;;;5055846;28;20096;-73
2022/07/17 00:11:53;;;;;;;1.30;1.17;;;;;;;;;;5055731;28;20068;-73
2022/07/17 00:14:18;;;;;;;0.32;0.32;;;;;;;;;;5055534;28;20029;-73
2022/07/17 00:16:44;;;;;;;0.80;0.80;;;;;;;;;;5038007;28;20036;-71
2022/07/17 00:19:09;;;;;;;0.70;0.68;;;;;;;;;;5055557;28;20098;-72
2022/07/17 00:21:35;;;;;;;0.20;0.20;;;;;;;;;;5054013;28;20037;-72
2022/07/17 00:24:00;;;;;;;2.80;2.00;;;;;;;;;;5055508;28;20486;-74
2022/07/17 00:26:26;;;;;;;4.15;0.80;;;;;;;;;;5055527;28;20025;-74
2022/07/17 00:28:51;;;;;;;0.40;0.40;;;;;;;;;;5055185;28;20529;-73
2022/07/17 00:31:17;;;;;;;2.03;1.85;;;;;;;;;;5055097;28;20667;-73
2022/07/17 00:33:42;;;;;;;3.70;1.58;;;;;;;;;;5054225;28;20045;-73
2022/07/17 00:36:07;;;;;;;1.35;1.25;;;;;;;;;;5055300;28;20033;-73
2022/07/17 00:38:33;;;;;;;2.13;1.42;;;;;;;;;;5055240;28;20060;-73
2022/07/17 00:40:59;;;;;;;2.10;1.65;;;;;;;;;;5055410;28;20069;-73
2022/07/17 00:43:25;;;;;;;0.30;0.30;;;;;;;;;;5054908;28;20024;-72
2022/07/17 00:46:01;;;;;;;0.50;0.50;;;;;;;;;;5055056;28;20068;-73
2022/07/17 00:48:26;;;;;;;2.40;1.75;;;;;;;;;;5053917;28;20052;-73
2022/07/17 00:50:52;;;;;;;2.10;1.73;;;;;;;;;;5055059;28;20114;-74
2022/07/17 00:53:18;;;;;;;5.20;3.17;;;;;;;;;;5054911;28;20045;-73
2022/07/17 00:55:46;;;;;;;1.02;0.88;;;;;;;;;;5054821;28;20032;-74
2022/07/17 00:58:15;;;;;;;0.80;0.77;;;;;;;;;;5054669;28;20013;-73
2022/07/17 01:00:41;;;;;;;0.30;0.30;;;;;;;;;;5053790;28;20056;-73
2022/07/17 01:03:09;;;;;;;0.20;0.20;;;;;;;;;;5054795;28;20118;-74
2022/07/17 01:05:34;;;;;;;0.30;0.30;;;;;;;;;;5055064;28;20400;-74
2022/07/17 01:08:00;;;;;;;0.20;0.20;;;;;;;;;;5053425;28;20029;-73
2022/07/17 01:10:26;;;;;;;0.20;0.20;;;;;;;;;;5053390;28;20056;-73
2022/07/17 01:12:51;;;;;;;0.20;0.20;;;;;;;;;;5054282;28;20036;-74
2022/07/17 01:15:17;;;;;;;0.20;0.20;;;;;;;;;;5054701;28;20499;-73
2022/07/17 01:17:43;;;;;;;0.40;0.40;;;;;;;;;;5037039;28;20100;-73
2022/07/17 01:20:09;;;;;;;0.22;0.22;;;;;;;;;;5054407;28;20095;-73
2022/07/17 01:22:42;;;;;;;0.40;0.40;;;;;;;;;;5054366;28;20054;-73
2022/07/17 01:25:08;;;;;;;0.20;0.20;;;;;;;;;;5054378;28;20036;-73
2022/07/17 01:27:33;;;;;;;0.20;0.20;;;;;;;;;;5054100;28;20104;-72
2022/07/17 01:29:59;;;;;;;0.20;0.20;;;;;;;;;;5054418;28;20482;-73
2022/07/17 01:32:32;;;;;;;0.35;0.35;;;;;;;;;;5053179;28;20048;-73
2022/07/17 01:34:57;;;;;;;0.20;0.20;;;;;;;;;;5054186;28;20040;-74
2022/07/17 01:37:23;;;;;;;0.30;0.30;;;;;;;;;;5054116;28;20024;-74
2022/07/17 01:39:54;;;;;;;0.20;0.20;;;;;;;;;;5054103;28;20036;-73
2022/07/17 01:42:20;;;;;;;0.20;0.20;;;;;;;;;;5054081;28;20029;-74
2022/07/17 01:44:45;;;;;;;0.20;0.20;;;;;;;;;;5054501;28;20480;-74
2022/07/17 01:47:12;;;;;;;0.25;0.25;;;;;;;;;;5054066;28;20139;-74
2022/07/17 01:49:38;;;;;;;0.20;0.20;;;;;;;;;;5053999;28;20083;-74
2022/07/17 01:52:03;;;;;;;0.20;0.20;;;;;;;;;;5053750;28;20022;-73
2022/07/17 01:54:29;;;;;;;0.20;0.20;;;;;;;;;;5053706;28;20036;-73
2022/07/17 01:56:55;;;;;;;0.20;0.20;;;;;;;;;;5052674;28;20029;-73
2022/07/17 01:59:20;;;;;;;0.20;0.20;;;;;;;;;;5052553;28;20021;-74
2022/07/17 02:01:46;;;;;;;0.20;0.20;;;;;;;;;;5053897;28;20090;-74
2022/07/17 02:04:12;;;;;;;0.20;0.20;;;;;;;;;;5053747;28;20025;-73
2022/07/17 02:06:37;;;;;;;0.30;0.30;;;;;;;;;;5053601;28;20024;-74
2022/07/17 02:09:03;;;;;;;0.25;0.25;;;;;;;;;;5053552;28;20113;-74
2022/07/17 02:11:28;;;;;;;0.20;0.20;;;;;;;;;;5054294;28;20044;-74
2022/07/17 02:13:54;;;;;;;0.20;0.20;;;;;;;;;;5056746;28;20111;-74
2022/07/17 02:16:19;;;;;;;0.25;0.25;;;;;;;;;;5053463;28;20028;-74
2022/07/17 02:18:45;;;;;;;0.20;0.20;;;;;;;;;;5053440;28;20021;-74
2022/07/17 02:21:10;;;;;;;0.38;0.38;;;;;;;;;;5053474;28;20017;-73
2022/07/17 02:23:36;;;;;;;0.40;0.40;;;;;;;;;;5053382;28;20021;-73
2022/07/17 02:26:02;;;;;;;0.73;0.73;;;;;;;;;;5051766;28;20013;-73
2022/07/17 02:28:27;;;;;;;0.20;0.20;;;;;;;;;;5054290;28;20107;-73
2022/07/17 02:30:53;;;;;;;0.20;0.20;;;;;;;;;;5064331;28;20028;-73
2022/07/17 02:33:18;;;;;;;0.20;0.20;;;;;;;;;;5062729;28;20060;-72
2022/07/17 02:35:44;;;;;;;0.30;0.30;;;;;;;;;;5055407;28;20063;-73
2022/07/17 02:38:09;;;;;;;0.20;0.20;;;;;;;;;;5052245;28;20048;-74
2022/07/17 02:40:35;;;;;;;0.20;0.20;;;;;;;;;;5053391;28;20029;-73
2022/07/17 02:43:00;;;;;;;0.10;0.10;;;;;;;;;;5053059;28;20029;-72
2022/07/17 02:45:26;;;;;;;0.20;0.20;;;;;;;;;;5053430;28;20037;-73
2022/07/17 02:47:52;;;;;;;0.28;0.28;;;;;;;;;;5035461;28;20430;-74
2022/07/17 02:50:18;;;;;;;0.20;0.20;;;;;;;;;;5052910;28;20040;-73
2022/07/17 02:52:44;;;;;;;0.20;0.20;;;;;;;;;;5053088;28;20037;-73
2022/07/17 02:55:10;;;;;;;0.20;0.20;;;;;;;;;;5052912;28;20111;-74
2022/07/17 02:57:35;;;;;;;0.25;0.25;;;;;;;;;;5052983;28;20028;-73
2022/07/17 03:00:02;;;;;;;0.20;0.20;;;;;;;;;;5053168;28;20424;-73
2022/07/17 03:02:27;;;;;;;0.25;0.25;;;;;;;;;;5048657;28;20029;-73
2022/07/17 03:04:53;;;;;;;0.20;0.20;;;;;;;;;;5048230;28;20503;-72
2022/07/17 03:07:18;;;;;;;0.30;0.30;;;;;;;;;;5049377;28;20025;-74
2022/07/17 03:09:44;;;;;;;0.20;0.20;;;;;;;;;;5049140;28;20035;-73
2022/07/17 03:12:09;;;;;;;0.40;0.40;;;;;;;;;;5048140;28;20056;-73
2022/07/17 03:14:35;;;;;;;0.20;0.20;;;;;;;;;;5049245;28;20025;-74
2022/07/17 03:17:00;;;;;;;0.20;0.20;;;;;;;;;;5046010;28;20024;-74
2022/07/17 03:19:25;;;;;;;0.20;0.20;;;;;;;;;;5040429;28;20431;-74
2022/07/17 03:21:51;;;;;;;0.20;0.20;;;;;;;;;;5048913;28;20025;-72
2022/07/17 03:24:16;;;;;;;0.22;0.22;;;;;;;;;;5049068;28;20041;-73
2022/07/17 03:26:42;;;;;;;0.95;0.90;;;;;;;;;;5048547;28;20104;-73
2022/07/17 03:29:07;;;;;;;0.30;0.30;;;;;;;;;;5047902;28;20044;-73
2022/07/17 03:31:33;;;;;;;0.20;0.20;;;;;;;;;;5048746;28;20047;-73
2022/07/17 03:33:58;;;;;;;0.20;0.20;;;;;;;;;;5048820;28;20075;-72
2022/07/17 03:36:24;;;;;;;0.28;0.28;;;;;;;;;;5048606;28;20033;-72
2022/07/17 03:38:49;;;;;;;0.20;0.20;;;;;;;;;;5048703;28;20025;-73
2022/07/17 03:41:15;;;;;;;0.20;0.20;;;;;;;;;;5048216;28;20029;-73
2022/07/17 03:43:42;;;;;;;0.20;0.20;;;;;;;;;;5048346;28;20553;-73
2022/07/17 03:46:09;;;;;;;0.20;0.20;;;;;;;;;;5048834;28;20875;-73
2022/07/17 03:48:34;;;;;;;0.20;0.20;;;;;;;;;;5048660;28;20037;-73
2022/07/17 03:50:59;;;;;;;0.20;0.20;;;;;;;;;;5048216;28;20025;-73
2022/07/17 03:53:25;;;;;;;0.20;0.20;;;;;;;;;;5047283;28;20116;-72
2022/07/17 03:55:50;;;;;;;0.20;0.20;;;;;;;;;;5050117;28;20590;-73
2022/07/17 03:58:16;;;;;;;0.20;0.20;;;;;;;;;;5034302;28;20516;-72
2022/07/17 04:00:41;;;;;;;0.20;0.20;;;;;;;;;;5052101;28;20025;-74
2022/07/17 04:03:07;;;;;;;1.05;0.95;;;;;;;;;;5051895;28;20038;-73
2022/07/17 04:05:32;;;;;;;2.15;1.75;;;;;;;;;;5052099;28;20025;-74
2022/07/17 04:07:58;;;;;;;0.20;0.20;;;;;;;;;;5050907;28;20494;-73
2022/07/17 04:10:23;;;;;;;0.20;0.20;;;;;;;;;;5050678;28;20074;-73
2022/07/17 04:12:49;;;;;;;0.20;0.20;;;;;;;;;;5051877;28;20442;-73
2022/07/17 04:15:48;;;;;;;0.25;0.25;;;;;;;;;;5050424;28;20035;-72
2022/07/17 04:18:00;;;;;;;0.25;0.25;;;;;;;;;;5052042;28;20029;-72
2022/07/17 04:20:26;;;;;;;0.20;0.20;;;;;;;;;;5051629;28;20100;-73
2022/07/17 04:22:51;;;;;;;0.20;0.20;;;;;;;;;;5051870;28;20037;-73
2022/07/17 04:25:17;;;;;;;0.55;0.55;;;;;;;;;;5050084;28;20032;-72
2022/07/17 04:27:42;;;;;;;0.30;0.30;;;;;;;;;;5051776;28;20079;-73
2022/07/17 04:30:08;;;;;;;0.20;0.20;;;;;;;;;;5051945;28;20139;-73
2022/07/17 04:32:33;;;;;;;0.20;0.20;;;;;;;;;;5051320;28;20095;-74
2022/07/17 04:34:59;;;;;;;0.20;0.20;;;;;;;;;;5051632;28;20102;-71
2022/07/17 04:37:24;;;;;;;8.98;5.68;;;;;;;;;;5050464;28;20033;-72
2022/07/17 04:39:49;;;;;;;0.20;0.20;;;;;;;;;;5051548;28;20415;-71
2022/07/17 04:42:15;;;;;;;0.30;0.30;;;;;;;;;;5051646;28;20385;-73
2022/07/17 04:44:40;;;;;;;0.20;0.20;;;;;;;;;;5051515;28;20028;-72
2022/07/17 04:47:06;;;;;;;0.20;0.20;;;;;;;;;;5049703;28;20041;-72
2022/07/17 04:49:31;;;;;;;0.20;0.20;;;;;;;;;;5051846;28;20067;-73
2022/07/17 04:51:57;;;;;;;0.20;0.20;;;;;;;;;;5050345;28;20040;-73
2022/07/17 04:54:22;;;;;;;0.30;0.30;;;;;;;;;;5050875;28;20033;-72
2022/07/17 04:56:47;;;;;;;0.28;0.28;;;;;;;;;;5050128;28;20047;-73
2022/07/17 04:59:13;;;;;;;0.20;0.20;;;;;;;;;;5050952;28;20021;-72
2022/07/17 05:01:38;;;;;;;0.20;0.20;;;;;;;;;;5046224;28;20100;-72
2022/07/17 05:04:04;;;;;;;0.47;0.47;;;;;;;;;;5040517;28;20095;-72
2022/07/17 05:06:29;;;;;;;0.30;0.30;;;;;;;;;;5060541;28;20021;-70
2022/07/17 05:08:55;;;;;;;0.60;0.60;;;;;;;;;;5045583;28;20029;-72
2022/07/17 05:11:20;;;;;;;0.20;0.20;;;;;;;;;;5049894;28;20484;-73
2022/07/17 05:13:45;;;;;;;0.30;0.30;;;;;;;;;;5048929;28;20068;-72
2022/07/17 05:16:11;;;;;;;0.20;0.20;;;;;;;;;;5048718;28;20025;-71
2022/07/17 05:18:36;;;;;;;0.20;0.20;;;;;;;;;;5048814;28;20091;-73
2022/07/17 05:21:02;;;;;;;0.20;0.20;;;;;;;;;;5047309;28;20072;-73
2022/07/17 05:23:27;;;;;;;0.20;0.20;;;;;;;;;;5048750;28;20029;-72
2022/07/17 05:25:53;;;;;;;0.35;0.35;;;;;;;;;;5048386;28;20021;-73
2022/07/17 05:28:18;;;;;;;0.20;0.20;;;;;;;;;;5056344;28;20036;-73
2022/07/17 05:30:44;;;;;;;0.20;0.20;;;;;;;;;;5051495;28;20053;-73
2022/07/17 05:33:09;;;;;;;0.20;0.20;;;;;;;;;;5049856;28;20482;-73
2022/07/17 05:35:35;;;;;;;20.15;15.73;;;;;;;;;;5051257;28;20384;-74
2022/07/17 05:38:00;;;;;;;0.20;0.20;;;;;;;;;;5050788;28;20025;-74
2022/07/17 05:40:25;;;;;;;0.20;0.20;;;;;;;;;;5050184;28;20036;-73
2022/07/17 05:42:51;;;;;;;0.20;0.20;;;;;;;;;;5050516;28;20021;-73
2022/07/17 05:45:17;;;;;;;0.20;0.20;;;;;;;;;;5050096;28;20128;-73
2022/07/17 05:47:42;;;;;;;0.40;0.40;;;;;;;;;;5047415;28;20025;-75
2022/07/17 05:50:07;;;;;;;0.20;0.20;;;;;;;;;;5041429;28;20029;-70
2022/07/17 05:52:33;;;;;;;0.20;0.20;;;;;;;;;;5048451;28;20037;-70
2022/07/17 05:54:58;;;;;;;0.20;0.20;;;;;;;;;;5048346;28;20036;-69
2022/07/17 05:57:24;;;;;;;0.20;0.20;;;;;;;;;;5050107;28;20025;-70
2022/07/17 05:59:49;;;;;;;0.20;0.20;;;;;;;;;;5049099;28;20455;-68
2022/07/17 06:02:15;;;;;;;0.20;0.20;;;;;;;;;;5050189;28;20040;-70
2022/07/17 06:04:40;;;;;;;0.20;0.20;;;;;;;;;;5050070;28;20029;-68
2022/07/17 06:07:06;;;;;;;1.20;1.15;;;;;;;;;;5048214;28;20032;-70
2022/07/17 06:09:32;;;;;;;0.30;0.30;;;;;;;;;;5046526;28;20074;-70
2022/07/17 06:11:57;;;;;;;0.30;0.30;;;;;;;;;;5046544;28;20159;-70
2022/07/17 06:14:24;;;;;;;0.30;0.30;;;;;;;;;;5048072;28;20643;-70
2022/07/17 06:16:50;;;;;;;0.20;0.20;;;;;;;;;;5050141;28;20590;-68
2022/07/17 06:19:15;;;;;;;0.40;0.40;;;;;;;;;;5045679;28;20037;-68
2022/07/17 06:21:41;;;;;;;0.20;0.20;;;;;;;;;;5046563;28;20029;-70
2022/07/17 06:24:06;;;;;;;0.20;0.20;;;;;;;;;;5048052;28;20091;-69
2022/07/17 06:26:32;;;;;;;0.30;0.30;;;;;;;;;;5052570;28;20161;-68
2022/07/17 06:28:57;;;;;;;1.77;1.70;;;;;;;;;;5060200;28;20041;-71
2022/07/17 06:31:23;;;;;;;0.30;0.30;;;;;;;;;;5068394;28;20031;-70
2022/07/17 06:33:48;;;;;;;0.30;0.30;;;;;;;;;;5048404;28;20480;-69
2022/07/17 06:36:14;;;;;;;0.30;0.30;;;;;;;;;;5049573;28;20468;-69
2022/07/17 06:38:39;;;;;;;0.30;0.30;;;;;;;;;;5049922;28;20029;-69
2022/07/17 06:41:05;;;;;;;0.20;0.20;;;;;;;;;;5052497;28;20500;-69
2022/07/17 06:43:31;;;;;;;0.32;0.32;;;;;;;;;;5057346;28;20088;-69
2022/07/17 06:45:56;;;;;;;0.25;0.25;;;;;;;;;;5055113;28;20496;-70
2022/07/17 06:48:22;;;;;;;0.88;0.88;;;;;;;;;;5048858;28;20420;-70
2022/07/17 06:50:47;;;;;;;0.20;0.20;;;;;;;;;;5047815;28;20116;-69
2022/07/17 06:53:13;;;;;;;0.30;0.30;;;;;;;;;;5060022;28;20496;-69
2022/07/17 06:55:38;;;;;;;0.70;0.70;;;;;;;;;;5049440;28;20033;-69
2022/07/17 06:58:04;;;;;;;0.20;0.20;;;;;;;;;;5047832;28;20043;-70
2022/07/17 07:00:30;;;;;;;0.50;0.50;;;;;;;;;;5051555;28;20020;-68
2022/07/17 07:02:55;;;;;;;0.38;0.38;;;;;;;;;;5050476;28;20028;-70
2022/07/17 07:05:21;;;;;;;0.30;0.30;;;;;;;;;;5039909;28;20021;-70
2022/07/17 07:07:46;;;;;;;0.30;0.30;;;;;;;;;;5043656;28;20025;-69
2022/07/17 07:10:12;;;;;;;0.30;0.30;;;;;;;;;;5042349;28;20080;-69
2022/07/17 07:12:37;;;;;;;0.75;0.75;;;;;;;;;;5039543;28;20084;-68
2022/07/17 07:15:04;;;;;;;0.40;0.40;;;;;;;;;;5040002;28;20541;-70
2022/07/17 07:17:31;;;;;;;0.30;0.30;;;;;;;;;;5040310;28;20036;-69
2022/07/17 07:19:57;;;;;;;0.43;0.43;;;;;;;;;;5036895;28;20075;-69
2022/07/17 07:22:23;;;;;;;0.50;0.50;;;;;;;;;;5037661;28;20393;-70
2022/07/17 07:24:48;;;;;;;0.47;0.47;;;;;;;;;;5035224;28;20026;-68
2022/07/17 07:27:14;;;;;;;1.10;1.10;;;;;;;;;;5032038;28;20439;-69
2022/07/17 07:29:39;;;;;;;0.30;0.30;;;;;;;;;;5044066;28;20107;-69
2022/07/17 07:32:05;;;;;;;0.40;0.40;;;;;;;;;;5056113;28;20095;-69
2022/07/17 07:34:30;;;;;;;0.60;0.60;;;;;;;;;;5059732;28;20377;-69
2022/07/17 07:36:56;;;;;;;0.30;0.30;;;;;;;;;;5042126;28;20068;-68
2022/07/17 07:39:21;;;;;;;0.98;0.98;;;;;;;;;;5043267;28;20100;-69
2022/07/17 07:41:47;;;;;;;0.40;0.40;;;;;;;;;;5032205;28;20618;-68
2022/07/17 07:44:12;;;;;;;0.40;0.40;;;;;;;;;;5047186;28;20048;-69
2022/07/17 07:46:38;;;;;;;0.40;0.40;;;;;;;;;;5053012;28;20032;-69
2022/07/17 07:49:03;;;;;;;0.30;0.30;;;;;;;;;;5052375;28;20020;-69
2022/07/17 07:51:29;;;;;;;0.40;0.40;;;;;;;;;;5048354;28;20021;-69
2022/07/17 07:53:54;;;;;;;0.40;0.40;;;;;;;;;;5052004;28;20460;-69
2022/07/17 07:56:20;;;;;;;0.50;0.50;;;;;;;;;;5049530;28;20032;-69
2022/07/17 07:58:46;;;;;;;0.40;0.40;;;;;;;;;;5050730;28;20036;-69
2022/07/17 08:01:11;;;;;;;0.40;0.40;;;;;;;;;;5051246;28;20025;-68
2022/07/17 08:03:37;;;;;;;0.52;0.52;;;;;;;;;;5051712;28;20043;-70
2022/07/17 08:06:02;;;;;;;0.38;0.38;;;;;;;;;;5051323;28;20116;-69
2022/07/17 08:08:28;;;;;;;0.60;0.60;;;;;;;;;;5051106;28;20033;-68
2022/07/17 08:10:53;;;;;;;0.40;0.40;;;;;;;;;;5047643;28;20025;-69
2022/07/17 08:13:19;;;;;;;0.40;0.40;;;;;;;;;;5033890;28;20049;-68
2022/07/17 08:15:44;;;;;;;0.43;0.43;;;;;;;;;;5051898;28;20035;-68
2022/07/17 08:18:10;;;;;;;0.40;0.40;;;;;;;;;;5054718;28;20059;-69
2022/07/17 08:20:35;;;;;;;0.50;0.50;;;;;;;;;;5061080;28;20056;-68
2022/07/17 08:23:01;;;;;;;0.77;0.70;;;;;;;;;;5050310;28;20037;-72
2022/07/17 08:25:26;;;;;;;0.60;0.60;;;;;;;;;;5051444;28;20065;-68
2022/07/17 08:27:52;;;;;;;0.55;0.55;;;;;;;;;;5051841;28;20079;-69
2022/07/17 08:30:17;;;;;;;0.60;0.60;;;;;;;;;;5051823;28;20033;-68
2022/07/17 08:32:43;;;;;;;0.73;0.73;;;;;;;;;;5050320;28;20080;-69
2022/07/17 08:35:09;;;;;;;0.40;0.40;;;;;;;;;;5048447;28;20033;-69
2022/07/17 08:37:48;;;;;;;0.40;0.40;;;;;;;;;;5050838;28;20028;-69
2022/07/17 08:40:21;;;;;;;12.25;11.02;;;;;;;;;;5033343;28;20492;-69
2022/07/17 08:42:48;;;;;;;1.85;0.60;;;;;;;;;;5050710;28;20029;-70
2022/07/17 08:45:14;;;;;;;0.40;0.40;;;;;;;;;;5051312;28;20070;-69
2022/07/17 08:47:41;;;;;;;0.43;0.43;;;;;;;;;;5050427;28;20036;-69
2022/07/17 08:50:07;;;;;;;0.73;0.73;;;;;;;;;;5049687;28;20033;-73
2022/07/17 08:52:32;;;;;;;0.60;0.60;;;;;;;;;;5047675;28;20158;-73
2022/07/17 08:54:58;;;;;;;1.38;1.15;;;;;;;;;;5048646;28;20100;-73
2022/07/17 08:57:24;;;;;;;0.50;0.50;;;;;;;;;;5064372;28;20431;-72
2022/07/17 08:59:50;;;;;;;0.40;0.40;;;;;;;;;;5037299;28;20035;-72
2022/07/17 09:02:15;;;;;;;0.40;0.40;;;;;;;;;;5057744;28;20036;-75
2022/07/17 09:04:41;;;;;;;0.50;0.50;;;;;;;;;;5045780;28;20025;-73
2022/07/17 09:07:06;;;;;;;0.43;0.43;;;;;;;;;;5032435;28;20029;-72
2022/07/17 09:09:33;;;;;;;0.57;0.57;;;;;;;;;;5038960;28;20117;-74
2022/07/17 09:11:59;;;;;;;0.70;0.70;;;;;;;;;;5047958;28;20060;-73
2022/07/17 09:14:36;;;;;;;0.65;0.65;;;;;;;;;;5046265;28;20037;-74
2022/07/17 09:17:03;;;;;;;0.40;0.40;;;;;;;;;;5045303;28;20033;-73
2022/07/17 09:19:30;;;;;;;0.50;0.50;;;;;;;;;;5046217;28;20187;-73
2022/07/17 09:22:14;;;;;;;0.50;0.50;;;;;;;;;;5047216;28;20479;-73
2022/07/17 09:24:50;;;;;;;0.57;0.57;;;;;;;;;;5051161;28;20388;-74
2022/07/17 09:27:28;;;;;;;0.95;0.93;;;;;;;;;;5044651;28;20029;-73
2022/07/17 09:29:53;;;;;;;0.43;0.43;;;;;;;;;;5049348;28;20131;-72
2022/07/17 09:32:20;;;;;;;3.05;1.80;;;;;;;;;;5046412;28;20374;-74
2022/07/17 09:34:49;;;;;;;0.73;0.73;;;;;;;;;;5047010;28;20029;-74
2022/07/17 09:37:14;;;;;;;0.63;0.63;;;;;;;;;;5029825;28;20025;-74
2022/07/17 09:39:40;;;;;;;1.20;1.10;;;;;;;;;;5046814;28;20021;-76
2022/07/17 09:42:06;;;;;;;1.52;1.30;;;;;;;;;;5046880;28;20037;-73
2022/07/17 09:44:32;;;;;;;1.13;1.08;;;;;;;;;;5030336;28;20036;-72
2022/07/17 09:46:57;;;;;;;1.38;1.23;;;;;;;;;;5046927;28;20456;-73
2022/07/17 09:49:26;;;;;;;1.90;1.40;;;;;;;;;;5030366;28;20029;-72
2022/07/17 09:51:52;;;;;;;0.73;0.73;;;;;;;;;;5043316;28;20029;-72
2022/07/17 09:54:20;;;;;;;0.68;0.68;;;;;;;;;;5028885;28;20804;-75
2022/07/17 09:56:47;;;;;;;2.22;1.83;;;;;;;;;;5046932;28;20016;-72
2022/07/17 09:59:13;;;;;;;0.70;0.70;;;;;;;;;;5047813;28;20031;-74
2022/07/17 10:01:40;;;;;;;1.90;1.67;;;;;;;;;;5029455;28;20372;-73
2022/07/17 10:04:06;;;;;;;0.63;0.63;;;;;;;;;;5030084;28;20029;-73
2022/07/17 10:06:31;;;;;;;1.13;1.02;;;;;;;;;;5037140;28;20017;-75
2022/07/17 10:08:58;;;;;;;2.55;1.45;;;;;;;;;;5034462;28;20032;-73
2022/07/17 10:11:25;;;;;;;1.95;1.35;;;;;;;;;;5042242;28;20029;-74
2022/07/17 10:13:53;;;;;;;0.80;0.80;;;;;;;;;;5039175;28;20025;-72
2022/07/17 10:16:24;;;;;;;4.27;1.87;;;;;;;;;;5029808;28;20071;-73
2022/07/17 10:18:52;;;;;;;7.40;3.53;;;;;;;;;;5029943;28;20025;-73
2022/07/17 10:21:18;;;;;;;2.17;1.70;;;;;;;;;;5029679;28;20123;-73
2022/07/17 10:23:48;;;;;;;3.60;2.80;;;;;;;;;;5046270;28;20072;-75
2022/07/17 10:26:14;;;;;;;0.80;0.80;;;;;;;;;;5029088;28;20649;-73
2022/07/17 10:28:46;;;;;;;1.52;1.33;;;;;;;;;;5046621;28;20033;-74
2022/07/17 10:31:27;;;;;;;3.22;1.70;;;;;;;;;;5045857;28;20037;-72
2022/07/17 10:34:00;;;;;;;1.15;1.05;;;;;;;;;;5028584;28;20106;-74
2022/07/17 10:36:35;;;;;;;2.45;1.65;;;;;;;;;;5046605;28;20503;-73
2022/07/17 10:39:10;;;;;;;1.23;0.95;;;;;;;;;;5045652;28;20577;-73
2022/07/17 10:41:36;;;;;;;2.28;1.60;;;;;;;;;;5046015;28;20043;-72
2022/07/17 10:44:01;;;;;;;2.10;1.55;;;;;;;;;;5044234;28;20029;-73
2022/07/17 10:46:28;;;;;;;1.10;0.90;;;;;;;;;;5029268;28;20086;-74
2022/07/17 10:48:55;;;;;;;5.43;2.25;;;;;;;;;;5038761;28;20033;-73
2022/07/17 10:51:23;;;;;;;2.55;1.67;;;;;;;;;;5041949;28;20029;-74
2022/07/17 10:53:49;;;;;;;1.45;1.35;;;;;;;;;;5046967;28;20291;-73
2022/07/17 10:56:16;;;;;;;2.35;1.80;;;;;;;;;;5037572;28;20119;-74
2022/07/17 10:58:42;;;;;;;3.38;2.33;;;;;;;;;;5045757;28;20722;-74
2022/07/17 11:01:12;;;;;;;2.53;1.65;;;;;;;;;;5045882;28;20068;-74
2022/07/17 11:03:39;;;;;;;2.33;1.70;;;;;;;;;;5045173;28;20136;-73
2022/07/17 11:06:08;;;;;;;0.80;0.80;;;;;;;;;;5032727;28;20277;-73
2022/07/17 11:08:33;;;;;;;;;;;;;;;;;;5051443;28;20022;-73
2022/07/17 11:10:59;;;;;;;2.53;2.00;;;;;;;;;;5032677;28;20322;-73
2022/07/17 11:13:24;;;;;;;0.38;0.38;;;;;;;;;;5050645;28;20678;-73
2022/07/17 11:15:50;;;;;;;3.53;1.80;;;;;;;;;;5050461;28;20025;-75
2022/07/17 11:18:17;;;;;;;2.15;1.77;;;;;;;;;;5044244;28;20477;-75
2022/07/17 11:20:54;;;;;;;21.92;2.13;;;;;;;;;;5044631;28;20033;-75
2022/07/17 11:23:20;;;;;;;1.70;1.52;;;;;;;;;;5045100;28;20052;-74
2022/07/17 11:25:53;;;;;;;4.38;1.65;;;;;;;;;;5064001;28;20029;-73
2022/07/17 11:28:47;;;;;;;1.33;1.10;;;;;;;;;;5049622;28;20032;-73
2022/07/17 11:31:20;;;;;;;2.45;1.55;;;;;;;;;;5027936;28;20040;-73
2022/07/17 11:33:56;;;;;;;1.25;1.05;;;;;;;;;;5050098;28;20079;-75
2022/07/17 11:36:23;;;;;;;1.30;1.20;;;;;;;;;;5032194;28;20029;-73
2022/07/17 11:38:48;;;;;;;2.00;1.45;;;;;;;;;;5046073;28;20395;-73
2022/07/17 11:41:15;;;;;;;3.28;2.10;;;;;;;;;;5026959;28;20040;-73
2022/07/17 11:43:42;;;;;;;1.90;1.60;;;;;;;;;;5034983;28;20037;-73
2022/07/17 11:46:09;;;;;;;5.22;1.50;;;;;;;;;;5055602;28;20060;-73
2022/07/17 11:48:34;;;;;;;3.00;1.77;;;;;;;;;;5050652;28;20414;-73
2022/07/17 11:51:00;;;;;;;4.15;1.00;;;;;;;;;;5030868;28;20115;-73
2022/07/17 11:53:33;;;;;;;3.72;1.48;;;;;;;;;;5048974;28;20033;-74
2022/07/17 11:55:59;;;;;;;0.95;0.90;;;;;;;;;;5048938;28;20025;-73
2022/07/17 11:58:25;;;;;;;1.38;1.02;;;;;;;;;;5049055;28;20035;-74
2022/07/17 12:00:59;;;;;;;1.00;0.90;;;;;;;;;;5034710;28;20029;-74
2022/07/17 12:03:25;;;;;;;0.60;0.60;;;;;;;;;;5044935;28;20033;-74
2022/07/17 12:05:51;;;;;;;0.57;0.57;;;;;;;;;;5023575;28;20029;-73
2022/07/17 12:08:20;;;;;;;3.15;1.67;;;;;;;;;;5026115;28;20037;-73
2022/07/17 12:10:47;;;;;;;1.83;1.60;;;;;;;;;;5032543;28;20104;-72
2022/07/17 12:13:12;;;;;;;0.98;0.95;;;;;;;;;;5049306;28;20090;-73
2022/07/17 12:15:48;;;;;;;0.98;0.88;;;;;;;;;;5050179;28;20028;-74
2022/07/17 12:18:23;;;;;;;2.30;1.52;;;;;;;;;;5035048;28;20021;-73
2022/07/17 12:20:50;;;;;;;0.73;0.73;;;;;;;;;;5046050;28;20037;-77
2022/07/17 12:23:34;;;;;;;1.92;1.15;;;;;;;;;;5046591;28;21135;-72
2022/07/17 12:26:05;;;;;;;0.60;0.60;;;;;;;;;;5037253;28;20052;-74
2022/07/17 12:28:31;;;;;;;2.00;1.50;;;;;;;;;;5040575;28;20032;-73
2022/07/17 12:30:57;;;;;;;2.47;1.23;;;;;;;;;;5038458;28;20037;-73
2022/07/17 12:33:23;;;;;;;1.50;1.27;;;;;;;;;;5028647;28;20091;-75
2022/07/17 12:35:48;;;;;;;1.52;1.17;;;;;;;;;;5012360;28;20083;-74
2022/07/17 12:38:14;;;;;;;3.60;1.05;;;;;;;;;;5028071;28;20115;-73
2022/07/17 12:40:40;;;;;;;3.33;2.33;;;;;;;;;;5049150;28;20052;-75
2022/07/17 12:43:05;;;;;;;1.60;1.30;;;;;;;;;;5031696;28;20044;-76
2022/07/17 12:45:31;;;;;;;1.15;0.98;;;;;;;;;;5040254;28;20043;-73
2022/07/17 12:47:56;;;;;;;1.88;1.38;;;;;;;;;;5027295;28;20049;-73
2022/07/17 12:50:22;;;;;;;0.68;0.68;;;;;;;;;;5047457;28;20033;-74
2022/07/17 12:52:48;;;;;;;0.80;0.77;;;;;;;;;;5032725;28;20522;-73
2022/07/17 12:55:13;;;;;;;0.60;0.60;;;;;;;;;;5047248;28;20044;-74
2022/07/17 12:57:39;;;;;;;2.95;1.67;;;;;;;;;;5025758;28;20025;-74
2022/07/17 13:00:04;;;;;;;2.55;1.58;;;;;;;;;;5012335;28;20476;-73
2022/07/17 13:02:30;;;;;;;3.58;1.40;;;;;;;;;;5042282;28;20044;-73
2022/07/17 13:04:55;;;;;;;0.88;0.88;;;;;;;;;;5049701;28;20025;-74
2022/07/17 13:07:21;;;;;;;1.67;1.40;;;;;;;;;;5054388;28;20039;-73
2022/07/17 13:09:46;;;;;;;4.68;1.83;;;;;;;;;;5067305;28;20060;-74
2022/07/17 13:12:12;;;;;;;1.65;1.40;;;;;;;;;;5050844;28;20120;-73
2022/07/17 13:14:37;;;;;;;2.63;1.38;;;;;;;;;;5050977;28;20475;-73
2022/07/17 13:17:03;;;;;;;1.20;1.10;;;;;;;;;;5050819;28;20032;-74
2022/07/17 13:19:28;;;;;;;0.82;0.77;;;;;;;;;;5050675;28;20031;-74
2022/07/17 13:21:54;;;;;;;1.52;1.23;;;;;;;;;;5050468;28;20380;-74
2022/07/17 13:24:20;;;;;;;0.65;0.65;;;;;;;;;;5050386;28;20047;-76
2022/07/17 13:26:46;;;;;;;2.05;1.48;;;;;;;;;;5050196;28;20028;-72
2022/07/17 13:29:11;;;;;;;0.70;0.70;;;;;;;;;;5050542;28;20402;-74
2022/07/17 13:31:37;;;;;;;2.10;0.93;;;;;;;;;;5049847;28;20681;-75
2022/07/17 13:34:03;;;;;;;2.20;1.30;;;;;;;;;;5041992;28;20026;-74
2022/07/17 13:36:28;;;;;;;1.05;0.95;;;;;;;;;;5021833;28;20120;-73
2022/07/17 13:38:54;;;;;;;1.42;1.10;;;;;;;;;;5046762;28;20056;-74
2022/07/17 13:41:19;;;;;;;0.85;0.80;;;;;;;;;;5030122;28;20029;-74
2022/07/17 13:43:45;;;;;;;2.00;1.48;;;;;;;;;;5047063;28;20468;-70
2022/07/17 13:46:10;;;;;;;1.50;1.10;;;;;;;;;;5030324;28;20119;-73
2022/07/17 13:48:36;;;;;;;1.35;0.82;;;;;;;;;;5030078;28;20082;-74
2022/07/17 13:51:01;;;;;;;2.47;1.10;;;;;;;;;;5035186;28;20143;-73
2022/07/17 13:53:29;;;;;;;1.60;1.33;;;;;;;;;;5035955;28;20041;-74
2022/07/17 13:55:54;;;;;;;1.13;0.88;;;;;;;;;;5029773;28;20485;-74
2022/07/17 13:58:20;;;;;;;1.98;1.52;;;;;;;;;;5030231;28;20116;-73
2022/07/17 14:00:45;;;;;;;1.15;0.90;;;;;;;;;;5030543;28;20026;-73
2022/07/17 14:03:11;;;;;;;0.70;0.70;;;;;;;;;;5045256;28;20135;-73
2022/07/17 14:05:36;;;;;;;1.55;1.10;;;;;;;;;;5046676;28;20730;-73
2022/07/17 14:08:02;;;;;;;0.98;0.88;;;;;;;;;;5046672;28;20036;-74
2022/07/17 14:10:28;;;;;;;4.97;1.13;;;;;;;;;;5048223;28;20051;-73
2022/07/17 14:12:53;;;;;;;1.55;1.10;;;;;;;;;;5030158;28;20033;-74
2022/07/17 14:15:19;;;;;;;1.00;0.93;;;;;;;;;;5046348;28;20104;-73
2022/07/17 14:17:44;;;;;;;0.80;0.80;;;;;;;;;;5029926;28;20033;-73
2022/07/17 14:20:10;;;;;;;9.85;1.10;;;;;;;;;;5047810;28;20078;-73
2022/07/17 14:22:36;;;;;;;0.98;0.88;;;;;;;;;;5045988;28;20052;-73
2022/07/17 14:25:02;;;;;;;1.17;0.75;;;;;;;;;;5045630;28;20033;-73
2022/07/17 14:27:28;;;;;;;0.90;0.90;;;;;;;;;;5029375;28;20472;-73
2022/07/17 14:29:53;;;;;;;0.70;0.70;;;;;;;;;;5047329;28;20033;-73
2022/07/17 14:32:19;;;;;;;1.55;1.13;;;;;;;;;;5029151;28;20508;-73
2022/07/17 14:34:44;;;;;;;4.38;0.93;;;;;;;;;;5047721;28;20029;-74
2022/07/17 14:37:09;;;;;;;0.93;0.90;;;;;;;;;;5045495;28;20389;-75
2022/07/17 14:39:35;;;;;;;1.42;1.00;;;;;;;;;;5028523;28;20032;-75